Time;durP1;ratioP1;P1;durP2;ratioP2;P2;SDS_P1;SDS_P2;PMS_P1;PMS_P2;Temp;Humidity;BMP_temperature;BMP_pressure;BME280_temperature;BME280_humidity;BME280_pressure;Samples;Min_cycle;Max_cycle;Signal;HPM_P1;HPM_P2
2021/01/09 00:02:14;;;;;;;15.77;11.13;;;;;;;0.14;83.34;101102.28;5039554;28;20206;-64
2021/01/09 00:04:40;;;;;;;18.17;10.80;;;;;;;0.14;83.33;101096.19;5046829;28;20229;-65
2021/01/09 00:07:06;;;;;;;14.83;9.90;;;;;;;0.13;83.37;101099.69;5045629;28;20301;-66
2021/01/09 00:09:32;;;;;;;17.30;11.00;;;;;;;0.11;83.59;101098.84;5049688;28;20255;-64
2021/01/09 00:11:59;;;;;;;16.47;10.57;;;;;;;0.09;83.86;101100.59;5048269;28;20255;-65
2021/01/09 00:14:25;;;;;;;18.10;11.60;;;;;;;0.07;83.52;101105.88;5046255;28;20685;-65
2021/01/09 00:16:51;;;;;;;17.93;11.53;;;;;;;0.06;83.78;101106.75;5050311;28;20229;-63
2021/01/09 00:19:18;;;;;;;16.30;11.60;;;;;;;0.05;83.69;101107.63;5052168;28;20301;-65
2021/01/09 00:21:44;;;;;;;17.10;11.87;;;;;;;0.04;83.55;101105.91;5043626;28;20206;-64
2021/01/09 00:24:10;;;;;;;18.83;12.67;;;;;;;0.03;83.57;101104.16;5046099;28;20226;-66
2021/01/09 00:26:37;;;;;;;16.50;11.77;;;;;;;0.03;83.83;101105.91;5038724;28;20283;-64
2021/01/09 00:29:04;;;;;;;15.27;11.10;;;;;;;0.03;84.10;101108.53;5042789;28;20209;-64
2021/01/09 00:31:30;;;;;;;16.77;10.90;;;;;;;0.03;83.91;101105.91;5044079;28;20216;-64
2021/01/09 00:33:56;;;;;;;17.07;11.50;;;;;;;0.00;83.86;101109.47;5039172;28;20205;-64
2021/01/09 00:36:22;;;;;;;22.97;12.80;;;;;;;0.00;84.03;101110.31;5043790;28;20596;-65
2021/01/09 00:38:48;;;;;;;16.23;11.37;;;;;;;0.00;84.10;101114.69;5044732;28;20586;-63
2021/01/09 00:41:14;;;;;;;17.83;12.20;;;;;;;-0.01;84.40;101116.47;5046838;28;20717;-63
2021/01/09 00:43:40;;;;;;;15.87;10.77;;;;;;;-0.01;84.23;101124.31;5042623;28;20206;-65
2021/01/09 00:46:15;;;;;;;17.20;11.50;;;;;;;0.00;84.29;101127.78;5045938;28;20866;-64
2021/01/09 00:48:41;;;;;;;15.93;11.13;;;;;;;-0.01;84.28;101126.94;5041648;28;20206;-65
2021/01/09 00:51:12;;;;;;;17.03;12.37;;;;;;;-0.01;84.57;101132.16;5037703;28;20764;-64
2021/01/09 00:53:37;;;;;;;18.20;11.80;;;;;;;0.00;84.52;101130.41;5043112;28;20221;-65
2021/01/09 00:56:05;;;;;;;17.33;11.60;;;;;;;-0.01;84.57;101132.16;5041395;28;20229;-63
2021/01/09 00:58:31;;;;;;;16.90;12.87;;;;;;;0.02;84.51;101132.97;5041797;28;20209;-65
2021/01/09 01:00:57;;;;;;;20.90;13.17;;;;;;;0.02;84.46;101136.47;5037876;28;20588;-65
2021/01/09 01:03:23;;;;;;;20.13;13.07;;;;;;;0.04;84.65;101131.22;5037528;28;20304;-64
2021/01/09 01:05:49;;;;;;;18.97;12.93;;;;;;;0.05;84.71;101143.44;5040348;28;20221;-65
2021/01/09 01:08:15;;;;;;;21.97;12.23;;;;;;;0.06;84.65;101137.31;5041223;28;20205;-64
2021/01/09 01:10:41;;;;;;;20.37;11.73;;;;;;;0.05;84.48;101143.44;5044132;28;20205;-65
2021/01/09 01:13:07;;;;;;;18.47;11.37;;;;;;;0.05;84.54;101140.81;5040725;28;20790;-65
2021/01/09 01:15:33;;;;;;;20.90;10.67;;;;;;;0.04;84.51;101141.69;5039856;28;20218;-66
2021/01/09 01:18:00;;;;;;;15.20;10.63;;;;;;;0.03;84.56;101147.81;5037000;28;20770;-65
2021/01/09 01:20:27;;;;;;;15.17;11.10;;;;;;;0.03;84.60;101147.81;5040090;28;20209;-65
2021/01/09 01:22:53;;;;;;;17.60;10.53;;;;;;;0.03;84.42;101153.06;5037806;28;20214;-64
2021/01/09 01:25:19;;;;;;;14.33;9.63;;;;;;;0.04;84.67;101149.53;5037461;28;20308;-67
2021/01/09 01:27:45;;;;;;;14.87;10.20;;;;;;;0.03;84.64;101153.91;5044844;28;20260;-65
2021/01/09 01:30:12;;;;;;;14.40;10.07;;;;;;;0.04;84.60;101150.41;5038808;28;20201;-65
2021/01/09 01:32:38;;;;;;;15.63;10.20;;;;;;;0.03;84.71;101151.28;5033550;28;20610;-65
2021/01/09 01:35:05;;;;;;;14.33;10.00;;;;;;;0.04;84.59;101157.41;5041927;28;20229;-65
2021/01/09 01:37:32;;;;;;;15.90;9.20;;;;;;;0.05;84.61;101156.53;5046924;28;20210;-64
2021/01/09 01:39:58;;;;;;;13.40;9.93;;;;;;;0.05;84.53;101164.38;5044146;28;20201;-65
2021/01/09 01:42:24;;;;;;;16.20;10.30;;;;;;;0.04;84.62;101162.63;5038302;28;20246;-66
2021/01/09 01:44:50;;;;;;;15.37;9.90;;;;;;;0.04;84.55;101168.75;5045444;28;20316;-64
2021/01/09 01:47:18;;;;;;;15.03;9.77;;;;;;;0.05;84.38;101174.84;5050212;28;20626;-64
2021/01/09 01:49:45;;;;;;;14.07;9.33;;;;;;;0.06;84.85;101173.97;5039583;28;20201;-64
2021/01/09 01:52:12;;;;;;;14.50;10.17;;;;;;;0.06;84.62;101173.97;5050200;28;20267;-65
2021/01/09 01:54:40;;;;;;;14.30;9.63;;;;;;;0.05;84.60;101175.72;5045990;28;20205;-66
2021/01/09 01:57:08;;;;;;;13.20;9.13;;;;;;;0.06;84.71;101179.19;5038534;28;20688;-64
2021/01/09 01:59:35;;;;;;;13.80;8.90;;;;;;;0.06;84.62;101182.69;5049433;28;20209;-65
2021/01/09 02:02:03;;;;;;;14.27;9.67;;;;;;;0.07;84.59;101194.03;5045919;28;20658;-64
2021/01/09 02:04:29;;;;;;;14.13;9.10;;;;;;;0.08;84.66;101177.44;5046841;28;20234;-64
2021/01/09 02:06:59;;;;;;;16.50;10.10;;;;;;;0.08;84.68;101187.91;5041221;28;20240;-65
2021/01/09 02:09:29;;;;;;;13.43;8.80;;;;;;;0.09;84.69;101189.66;5049003;28;20206;-66
2021/01/09 02:12:04;;;;;;;11.97;8.07;;;;;;;0.08;84.70;101185.28;5040700;28;20205;-65
2021/01/09 02:14:38;;;;;;;13.50;8.93;;;;;;;0.08;84.44;101198.38;5045813;28;20213;-64
2021/01/09 02:17:07;;;;;;;12.47;8.40;;;;;;;0.07;84.54;101201.88;5049207;28;20229;-65
2021/01/09 02:19:37;;;;;;;13.43;9.33;;;;;;;0.06;84.44;101192.28;5047530;28;20210;-67
2021/01/09 02:22:04;;;;;;;14.73;9.13;;;;;;;0.08;84.58;101201.00;5036898;28;20209;-66
2021/01/09 02:24:31;;;;;;;15.93;9.93;;;;;;;0.07;84.47;101192.28;5040918;28;20598;-65
2021/01/09 02:26:58;;;;;;;15.53;9.20;;;;;;;0.07;84.53;101201.88;5044835;28;20225;-65
2021/01/09 02:29:24;;;;;;;13.30;9.50;;;;;;;0.07;84.48;101199.28;5041710;28;20210;-66
2021/01/09 02:32:04;;;;;;;14.17;10.00;;;;;;;0.07;84.54;101204.50;5048385;28;20614;-65
2021/01/09 02:34:41;;;;;;;16.57;10.53;;;;;;;0.06;84.33;101198.41;5053684;28;20201;-64
2021/01/09 02:37:07;;;;;;;16.60;10.53;;;;;;;0.05;84.29;101195.81;5048345;28;20202;-66
2021/01/09 02:39:35;;;;;;;19.23;11.13;;;;;;;0.05;84.48;101199.28;5037078;28;20220;-65
2021/01/09 02:42:03;;;;;;;19.70;12.40;;;;;;;0.03;84.47;101195.81;5052955;28;20213;-65
2021/01/09 02:44:29;;;;;;;18.43;12.13;;;;;;;0.04;84.44;101194.06;5038472;28;20226;-64
2021/01/09 02:46:55;;;;;;;19.57;12.67;;;;;;;0.04;84.51;101199.31;5046220;28;20234;-64
2021/01/09 02:49:21;;;;;;;19.67;12.13;;;;;;;0.04;84.63;101194.06;5046453;28;20597;-64
2021/01/09 02:51:47;;;;;;;18.20;12.47;;;;;;;0.04;84.57;101197.56;5051426;28;20209;-64
2021/01/09 02:54:13;;;;;;;21.57;13.57;;;;;;;0.04;84.49;101202.78;5053782;28;20722;-64
2021/01/09 02:56:40;;;;;;;20.10;12.77;;;;;;;0.05;84.41;101203.66;5052493;28;20244;-65
2021/01/09 02:59:06;;;;;;;22.00;13.67;;;;;;;0.03;84.35;101206.28;5049323;28;20210;-67
2021/01/09 03:01:32;;;;;;;20.63;12.37;;;;;;;0.04;84.36;101209.78;5048763;28;20291;-64
2021/01/09 03:03:58;;;;;;;22.43;14.57;;;;;;;0.03;84.32;101219.38;5052033;28;20691;-64
2021/01/09 03:06:25;;;;;;;22.50;14.40;;;;;;;0.04;84.23;101209.78;5051928;28;20828;-64
2021/01/09 03:08:52;;;;;;;22.97;13.97;;;;;;;0.04;84.13;101217.63;5051702;28;20271;-65
2021/01/09 03:11:18;;;;;;;22.07;13.67;;;;;;;0.04;84.46;101217.63;5052216;28;20297;-63
2021/01/09 03:13:45;;;;;;;23.07;14.17;;;;;;;0.03;84.57;101218.50;5052085;28;20214;-65
2021/01/09 03:16:11;;;;;;;20.33;13.70;;;;;;;0.04;84.45;101228.09;5051590;28;20601;-64
2021/01/09 03:18:38;;;;;;;18.53;12.70;;;;;;;0.04;84.46;101230.72;5053122;28;20678;-64
2021/01/09 03:21:05;;;;;;;18.53;13.10;;;;;;;0.04;84.24;101230.72;5051415;28;20698;-64
2021/01/09 03:23:31;;;;;;;20.13;13.13;;;;;;;0.04;84.47;101231.59;5050158;28;20584;-64
2021/01/09 03:25:56;;;;;;;20.93;13.07;;;;;;;0.04;84.58;101233.34;5051884;28;20225;-66
2021/01/09 03:28:23;;;;;;;20.67;13.23;;;;;;;0.03;84.65;101232.47;5043453;28;20226;-64
2021/01/09 03:30:50;;;;;;;20.80;13.27;;;;;;;0.04;84.46;101241.19;5048025;28;20670;-64
2021/01/09 03:33:17;;;;;;;20.80;12.73;;;;;;;0.04;84.48;101242.06;5051465;28;20206;-64
2021/01/09 03:35:43;;;;;;;20.03;13.23;;;;;;;0.04;84.55;101238.59;5053297;28;20228;-67
2021/01/09 03:38:09;;;;;;;20.43;13.30;;;;;;;0.05;84.55;101237.69;5050731;28;20197;-63
2021/01/09 03:40:35;;;;;;;22.33;12.90;;;;;;;0.05;84.43;101240.31;5052165;28;20213;-65
2021/01/09 03:43:02;;;;;;;23.93;13.37;;;;;;;0.04;84.54;101236.84;5050514;28;20202;-64
2021/01/09 03:45:29;;;;;;;20.37;13.00;;;;;;;0.05;84.57;101237.69;5051798;28;20226;-66
2021/01/09 03:47:55;;;;;;;19.67;12.73;;;;;;;0.06;84.57;101244.69;5052192;28;20212;-65
2021/01/09 03:50:21;;;;;;;22.50;13.43;;;;;;;0.06;84.46;101242.06;5051172;28;20208;-65
2021/01/09 03:52:47;;;;;;;21.00;12.57;;;;;;;0.06;84.67;101244.69;5051436;28;20217;-64
2021/01/09 03:55:13;;;;;;;21.20;14.03;;;;;;;0.04;84.44;101234.22;5050775;28;20233;-66
2021/01/09 03:57:39;;;;;;;21.00;13.17;;;;;;;0.04;84.31;101238.59;5042619;28;20203;-65
2021/01/09 04:00:07;;;;;;;21.37;13.40;;;;;;;0.02;84.55;101243.84;5049433;28;20292;-65
2021/01/09 04:02:33;;;;;;;22.43;13.50;;;;;;;0.03;84.58;101239.47;5051259;28;20202;-66
2021/01/09 04:05:01;;;;;;;21.93;12.13;;;;;;;0.03;84.48;101242.09;5051816;28;20229;-64
2021/01/09 04:07:27;;;;;;;20.17;12.63;;;;;;;0.00;84.66;101236.00;5051659;28;20220;-66
2021/01/09 04:09:53;;;;;;;19.67;12.97;;;;;;;-0.01;84.72;101239.53;5052679;28;20210;-64
2021/01/09 04:12:19;;;;;;;18.03;11.97;;;;;;;0.00;84.50;101243.00;5036447;28;20209;-64
2021/01/09 04:14:45;;;;;;;19.30;11.70;;;;;;;-0.02;84.69;101242.16;5051699;28;20198;-64
2021/01/09 04:17:11;;;;;;;18.40;11.93;;;;;;;-0.02;84.68;101245.63;5036738;28;20686;-65
2021/01/09 04:19:37;;;;;;;18.77;12.37;;;;;;;-0.02;84.47;101247.38;5052631;28;20578;-64
2021/01/09 04:22:04;;;;;;;19.07;12.77;;;;;;;-0.03;84.58;101246.53;5051509;28;20213;-64
2021/01/09 04:24:30;;;;;;;18.33;12.23;;;;;;;-0.03;84.68;101250.91;5051935;28;20824;-64
2021/01/09 04:26:57;;;;;;;18.93;12.00;;;;;;;-0.02;84.50;101247.38;5051435;28;20229;-64
2021/01/09 04:29:26;;;;;;;22.17;13.33;;;;;;;-0.03;84.27;101246.53;5045789;28;20206;-64
2021/01/09 04:31:52;;;;;;;21.87;12.90;;;;;;;-0.04;84.43;101244.78;5045418;28;20206;-64
2021/01/09 04:34:19;;;;;;;19.13;12.70;;;;;;;-0.03;84.48;101251.75;5045059;28;20197;-64
2021/01/09 04:36:45;;;;;;;22.37;13.73;;;;;;;-0.04;84.45;101244.78;5043382;28;20222;-63
2021/01/09 04:39:13;;;;;;;21.27;12.00;;;;;;;-0.02;84.63;101260.50;5045080;28;20218;-65
2021/01/09 04:41:39;;;;;;;17.83;11.93;;;;;;;-0.03;84.35;101254.38;5037490;28;20662;-64
2021/01/09 04:44:07;;;;;;;18.20;11.10;;;;;;;-0.04;84.52;101249.16;5041622;28;20741;-65
2021/01/09 04:46:37;;;;;;;18.93;12.43;;;;;;;-0.02;84.41;101263.09;5043137;28;20229;-65
2021/01/09 04:49:04;;;;;;;20.10;11.80;;;;;;;-0.01;84.35;101270.06;5042020;28;20579;-66
2021/01/09 04:51:30;;;;;;;19.60;12.23;;;;;;;-0.02;84.54;101261.34;5038071;28;20678;-66
2021/01/09 04:53:57;;;;;;;16.53;11.50;;;;;;;-0.01;84.47;101270.06;5042428;28;20202;-65
2021/01/09 04:56:24;;;;;;;16.83;10.40;;;;;;;0.00;84.49;101270.03;5044486;28;20327;-64
2021/01/09 04:58:50;;;;;;;16.63;9.53;;;;;;;0.02;84.81;101271.78;5049494;28;20214;-64
2021/01/09 05:01:16;;;;;;;14.20;9.83;;;;;;;0.00;84.50;101275.28;5044679;28;20202;-64
2021/01/09 05:03:48;;;;;;;14.40;9.20;;;;;;;0.00;84.62;101274.44;5049148;28;20205;-64
2021/01/09 05:06:19;;;;;;;14.93;9.53;;;;;;;-0.01;84.53;101278.81;5043643;28;20230;-65
2021/01/09 05:08:45;;;;;;;11.30;7.90;;;;;;;0.00;84.36;101279.66;5048679;28;20205;-64
2021/01/09 05:11:11;;;;;;;15.53;9.40;;;;;;;0.00;84.36;101283.13;5050734;28;20245;-64
2021/01/09 05:13:38;;;;;;;12.73;8.37;;;;;;;0.00;84.33;101277.88;5049173;28;20209;-65
2021/01/09 05:16:05;;;;;;;12.37;8.00;;;;;;;0.02;84.21;101279.63;5037831;28;20232;-65
2021/01/09 05:18:31;;;;;;;13.23;8.93;;;;;;;0.02;84.40;101290.09;5036964;28;20689;-64
2021/01/09 05:20:58;;;;;;;12.13;8.60;;;;;;;0.03;84.40;101286.59;5048002;28;20217;-65
2021/01/09 05:23:25;;;;;;;12.90;8.53;;;;;;;0.03;84.54;101282.22;5037575;28;20210;-66
2021/01/09 05:25:53;;;;;;;12.23;8.17;;;;;;;0.04;84.16;101283.09;5042354;28;20240;-66
2021/01/09 05:28:19;;;;;;;13.00;8.03;;;;;;;0.04;84.28;101277.88;5042616;28;20667;-64
2021/01/09 05:30:46;;;;;;;12.37;8.23;;;;;;;0.04;84.24;101283.97;5041428;28;20202;-64
2021/01/09 05:33:12;;;;;;;15.70;9.53;;;;;;;0.03;84.34;101282.22;5034462;28;20206;-64
2021/01/09 05:35:38;;;;;;;12.77;8.33;;;;;;;0.03;84.25;101284.84;5043602;28;20664;-64
2021/01/09 05:38:04;;;;;;;11.73;7.60;;;;;;;0.04;84.23;101288.34;5042831;28;20259;-69
2021/01/09 05:40:37;;;;;;;14.07;8.40;;;;;;;0.05;84.17;101290.06;5042951;28;20209;-64
2021/01/09 05:43:07;;;;;;;13.70;8.00;;;;;;;0.04;84.18;101288.34;5049168;28;20206;-64
2021/01/09 05:45:33;;;;;;;12.30;8.10;;;;;;;0.04;84.19;101296.19;5050631;28;20237;-63
2021/01/09 05:48:01;;;;;;;12.80;8.50;;;;;;;0.04;84.05;101298.81;5046984;28;20208;-63
2021/01/09 05:50:27;;;;;;;14.40;8.13;;;;;;;0.04;84.05;101298.81;5031490;28;20236;-66
2021/01/09 05:52:53;;;;;;;12.73;7.70;;;;;;;0.04;84.14;101299.69;5043639;28;20210;-65
2021/01/09 05:55:20;;;;;;;13.27;8.00;;;;;;;0.03;84.18;101303.19;5050538;28;20786;-66
2021/01/09 05:57:47;;;;;;;11.73;7.60;;;;;;;0.05;84.21;101305.78;5050099;28;20235;-67
2021/01/09 06:00:20;;;;;;;12.50;7.73;;;;;;;0.06;84.08;101305.78;5049183;28;20213;-64
2021/01/09 06:02:55;;;;;;;12.63;7.67;;;;;;;0.07;84.17;101310.13;5050162;28;20229;-66
2021/01/09 06:05:28;;;;;;;14.00;8.63;;;;;;;0.07;84.18;101311.88;5047479;28;20233;-63
2021/01/09 06:07:57;;;;;;;13.07;8.23;;;;;;;0.08;84.16;101313.63;5050977;28;20654;-64
2021/01/09 06:10:24;;;;;;;11.73;7.13;;;;;;;0.08;84.10;101313.63;5036682;28;20213;-63
2021/01/09 06:13:01;;;;;;;12.00;7.47;;;;;;;0.10;84.13;101317.09;5042119;28;20275;-64
2021/01/09 06:15:30;;;;;;;11.70;7.40;;;;;;;0.10;84.18;101322.34;5045990;28;20221;-64
2021/01/09 06:17:56;;;;;;;13.37;8.10;;;;;;;0.10;84.17;101317.09;5035219;28;20232;-64
2021/01/09 06:20:25;;;;;;;10.97;7.53;;;;;;;0.11;84.04;101321.44;5045774;28;20201;-64
2021/01/09 06:22:52;;;;;;;12.30;7.73;;;;;;;0.11;84.21;101327.56;5043396;28;20210;-62
2021/01/09 06:25:19;;;;;;;11.13;7.53;;;;;;;0.11;84.28;101327.56;5040233;28;20237;-64
2021/01/09 06:27:49;;;;;;;13.20;8.30;;;;;;;0.12;84.19;101323.19;5048744;28;20212;-64
2021/01/09 06:30:19;;;;;;;12.80;8.03;;;;;;;0.12;84.18;101336.28;5050107;28;20214;-64
2021/01/09 06:32:55;;;;;;;13.63;8.07;;;;;;;0.13;84.23;101332.78;5038503;28;20268;-64
2021/01/09 06:35:23;;;;;;;11.27;6.87;;;;;;;0.14;84.30;101337.13;5033977;28;20221;-65
2021/01/09 06:37:48;;;;;;;11.43;6.90;;;;;;;0.14;83.95;101334.53;5030828;28;20209;-63
2021/01/09 06:40:15;;;;;;;12.40;7.50;;;;;;;0.14;84.12;101332.78;5039340;28;20288;-65
2021/01/09 06:42:42;;;;;;;12.50;7.50;;;;;;;0.15;83.99;101336.25;5032472;28;20554;-65
2021/01/09 06:45:09;;;;;;;12.10;7.73;;;;;;;0.15;84.10;101336.25;5036211;28;20233;-66
2021/01/09 06:47:36;;;;;;;10.23;7.13;;;;;;;0.17;83.97;101337.13;5049082;28;20214;-64
2021/01/09 06:50:31;;;;;;;11.20;7.53;;;;;;;0.18;84.07;101342.31;5037029;28;20202;-67
2021/01/09 06:52:58;;;;;;;11.50;7.03;;;;;;;0.18;84.09;101336.25;5036460;28;20252;-65
2021/01/09 06:56:03;;;;;;;10.07;6.57;;;;;;;0.19;84.02;101340.56;5039565;28;20737;-65
2021/01/09 06:58:29;;;;;;;10.50;6.80;;;;;;;0.19;83.95;101341.44;5040936;28;20206;-63
2021/01/09 07:01:21;;;;;;;10.80;7.53;;;;;;;0.20;84.13;101339.69;5049349;28;20255;-64
2021/01/09 07:03:47;;;;;;;11.07;7.07;;;;;;;0.20;83.95;101345.78;5048558;28;20206;-63
2021/01/09 07:06:14;;;;;;;10.10;6.57;;;;;;;0.22;83.98;101349.25;5047545;28;20615;-65
2021/01/09 07:08:43;;;;;;;11.03;7.57;;;;;;;0.22;84.02;101349.25;5049034;28;20204;-65
2021/01/09 07:11:11;;;;;;;9.50;6.53;;;;;;;0.24;83.98;101357.09;5041590;28;20210;-65
2021/01/09 07:13:38;;;;;;;11.47;7.40;;;;;;;0.25;83.89;101361.47;5045709;28;20278;-65
2021/01/09 07:16:09;;;;;;;10.40;6.93;;;;;;;0.25;84.11;101364.97;5050102;28;20636;-65
2021/01/09 07:18:39;;;;;;;10.23;7.13;;;;;;;0.25;84.19;101358.84;5053097;28;20209;-65
2021/01/09 07:21:07;;;;;;;12.97;7.83;;;;;;;0.27;84.12;101364.94;5051874;28;20259;-64
2021/01/09 07:23:35;;;;;;;13.40;8.57;;;;;;;0.28;84.01;101371.91;5052555;28;20236;-63
2021/01/09 07:26:03;;;;;;;12.67;8.07;;;;;;;0.28;83.99;101371.91;5039800;28;20232;-64
2021/01/09 07:28:34;;;;;;;11.13;7.50;;;;;;;0.27;83.75;101372.81;5042908;28;20557;-64
2021/01/09 07:31:05;;;;;;;13.40;8.27;;;;;;;0.29;83.80;101385.00;5045324;28;20194;-64
2021/01/09 07:33:33;;;;;;;12.00;8.07;;;;;;;0.29;83.95;101377.16;5051495;28;20206;-63
2021/01/09 07:36:00;;;;;;;11.33;7.63;;;;;;;0.31;83.65;101387.63;5039123;28;20334;-64
2021/01/09 07:38:26;;;;;;;11.73;7.93;;;;;;;0.30;83.96;101383.25;5050537;28;20206;-65
2021/01/09 07:40:55;;;;;;;11.33;8.27;;;;;;;0.31;83.93;101379.75;5053421;28;20209;-65
2021/01/09 07:43:34;;;;;;;11.77;8.30;;;;;;;0.33;84.15;101391.09;5051342;28;20206;-65
2021/01/09 07:46:01;;;;;;;11.47;7.30;;;;;;;0.34;83.96;101393.69;5050873;28;20237;-65
2021/01/09 07:48:31;;;;;;;42.13;24.53;;;;;;;0.34;84.03;101391.09;5050627;28;20201;-65
2021/01/09 07:50:57;;;;;;;47.30;24.53;;;;;;;0.37;83.89;101395.41;5052423;28;20271;-64
2021/01/09 07:53:26;;;;;;;34.93;20.57;;;;;;;0.41;84.19;101393.63;5049173;28;20209;-64
2021/01/09 07:55:54;;;;;;;15.83;10.87;;;;;;;0.43;84.03;101391.84;5041765;28;20233;-65
2021/01/09 07:58:42;;;;;;;14.23;9.70;;;;;;;0.43;84.02;101397.97;5039995;28;20201;-65
2021/01/09 08:01:08;;;;;;;14.40;8.77;;;;;;;0.45;83.99;101395.34;5039737;28;20697;-64
2021/01/09 08:03:34;;;;;;;15.03;10.13;;;;;;;0.46;84.35;101403.19;5032583;28;20586;-65
2021/01/09 08:06:02;;;;;;;15.43;10.03;;;;;;;0.48;84.02;101413.66;5037073;28;20226;-65
2021/01/09 08:08:28;;;;;;;15.53;10.40;;;;;;;0.48;83.92;101406.66;5036396;28;20703;-65
2021/01/09 08:10:55;;;;;;;14.47;10.43;;;;;;;0.48;83.98;101417.16;5040511;28;20217;-65
2021/01/09 08:13:22;;;;;;;14.87;10.03;;;;;;;0.49;84.01;101418.88;5038540;28;20198;-64
2021/01/09 08:15:48;;;;;;;16.03;10.53;;;;;;;0.50;83.92;101425.88;5036894;28;20248;-64
2021/01/09 08:18:15;;;;;;;14.87;10.77;;;;;;;0.52;84.06;101428.47;5035892;28;20210;-64
2021/01/09 08:20:41;;;;;;;14.30;10.07;;;;;;;0.52;83.77;101431.09;5035921;28;20307;-65
2021/01/09 08:23:08;;;;;;;16.33;11.40;;;;;;;0.52;83.92;101429.34;5034824;28;20206;-65
2021/01/09 08:25:37;;;;;;;17.93;11.07;;;;;;;0.54;84.16;101439.78;5038634;28;20302;-64
2021/01/09 08:28:05;;;;;;;22.77;13.53;;;;;;;0.54;84.07;101439.78;5035220;28;20301;-65
2021/01/09 08:30:32;;;;;;;18.40;12.00;;;;;;;0.56;84.18;101445.88;5040710;28;20696;-64
2021/01/09 08:33:03;;;;;;;16.63;10.97;;;;;;;0.57;84.03;101443.25;5037546;28;20217;-66
2021/01/09 08:35:29;;;;;;;14.77;10.67;;;;;;;0.57;83.90;101445.88;5041420;28;20221;-65
2021/01/09 08:37:56;;;;;;;15.37;10.90;;;;;;;0.59;84.19;101448.47;5036464;28;20209;-65
2021/01/09 08:40:24;;;;;;;17.27;11.53;;;;;;;0.59;84.10;101454.59;5048462;28;20267;-65
2021/01/09 08:43:05;;;;;;;19.07;11.13;;;;;;;0.61;84.22;101454.56;5045051;28;20209;-63
2021/01/09 08:45:35;;;;;;;14.30;10.80;;;;;;;0.62;83.97;101451.94;5050591;28;20256;-64
2021/01/09 08:48:02;;;;;;;18.33;11.90;;;;;;;0.63;84.17;101458.94;5050062;28;20213;-64
2021/01/09 08:50:30;;;;;;;16.43;10.70;;;;;;;0.64;83.85;101460.66;5051051;28;20209;-64
2021/01/09 08:52:59;;;;;;;16.37;11.07;;;;;;;0.65;84.05;101459.78;5048884;28;20206;-63
2021/01/09 08:55:27;;;;;;;15.50;10.57;;;;;;;0.67;84.13;101465.88;5050524;28;20247;-64
2021/01/09 08:57:53;;;;;;;14.83;11.13;;;;;;;0.68;83.98;101472.88;5050008;28;20210;-63
2021/01/09 09:00:22;;;;;;;17.20;11.13;;;;;;;0.69;84.39;101468.50;5048612;28;20210;-65
2021/01/09 09:02:49;;;;;;;13.50;10.03;;;;;;;0.71;84.06;101478.97;5039965;28;20264;-64
2021/01/09 09:05:15;;;;;;;14.10;10.40;;;;;;;0.71;84.22;101476.34;5046000;28;20233;-64
2021/01/09 09:07:44;;;;;;;13.83;10.30;;;;;;;0.71;84.09;101471.97;5051736;28;20252;-63
2021/01/09 09:10:13;;;;;;;16.77;11.30;;;;;;;0.72;84.19;101472.84;5048012;28;20206;-64
2021/01/09 09:12:39;;;;;;;13.27;9.97;;;;;;;0.73;84.14;101471.94;5050218;28;20580;-65
2021/01/09 09:15:10;;;;;;;17.87;10.13;;;;;;;0.75;84.18;101483.28;5050339;28;20732;-64
2021/01/09 09:17:37;;;;;;;14.83;9.77;;;;;;;0.74;84.07;101485.03;5049328;28;20268;-63
2021/01/09 09:20:04;;;;;;;15.10;9.23;;;;;;;0.76;84.24;101490.25;5049849;28;20213;-65
2021/01/09 09:22:31;;;;;;;68.17;13.13;;;;;;;0.77;84.33;101489.38;5046781;28;20256;-64
2021/01/09 09:24:57;;;;;;;37.83;16.10;;;;;;;0.78;83.96;101493.75;5050622;28;20232;-64
2021/01/09 09:27:25;;;;;;;24.60;14.57;;;;;;;0.79;84.19;101492.84;5047831;28;20206;-67
2021/01/09 09:30:06;;;;;;;18.53;12.40;;;;;;;0.81;84.27;101491.09;5049531;28;20206;-63
2021/01/09 09:32:33;;;;;;;15.63;10.23;;;;;;;0.83;84.18;101494.56;5048841;28;20255;-63
2021/01/09 09:35:18;;;;;;;16.47;9.53;;;;;;;0.83;84.33;101492.81;5048865;28;20688;-64
2021/01/09 09:37:44;;;;;;;28.40;15.23;;;;;;;0.84;83.78;101502.44;5047282;28;20206;-66
2021/01/09 09:40:21;;;;;;;33.50;16.67;;;;;;;0.85;84.08;101495.44;5046049;28;20213;-68
2021/01/09 09:42:47;;;;;;;20.30;12.47;;;;;;;0.86;84.13;101492.78;5046363;28;20266;-66
2021/01/09 09:45:13;;;;;;;18.83;11.03;;;;;;;0.86;84.01;101492.78;5048964;28;20706;-65
2021/01/09 09:47:46;;;;;;;15.00;11.10;;;;;;;0.88;84.15;101492.78;5048766;28;20209;-64
2021/01/09 09:50:12;;;;;;;49.53;13.90;;;;;;;0.88;84.59;101491.03;5041435;28;20616;-64
2021/01/09 09:52:39;;;;;;;25.90;14.50;;;;;;;0.90;84.25;101493.59;5043823;28;20213;-64
2021/01/09 09:55:09;;;;;;;22.27;13.63;;;;;;;0.91;84.05;101482.22;5044773;28;20226;-66
2021/01/09 09:57:35;;;;;;;19.90;12.57;;;;;;;0.93;84.17;101493.56;5049543;28;20230;-64
2021/01/09 10:00:03;;;;;;;26.97;14.80;;;;;;;0.93;84.58;101490.97;5046387;28;20210;-64
2021/01/09 10:02:29;;;;;;;16.93;11.63;;;;;;;0.95;84.44;101489.19;5049292;28;20205;-66
2021/01/09 10:04:55;;;;;;;121.77;18.60;;;;;;;0.94;84.01;101487.44;5042053;28;20226;-65
2021/01/09 10:07:23;;;;;;;20.27;11.23;;;;;;;0.94;84.23;101490.06;5044778;28;20607;-65
2021/01/09 10:09:49;;;;;;;18.13;10.47;;;;;;;0.95;84.50;101489.19;5046526;28;20225;-66
2021/01/09 10:12:15;;;;;;;17.13;10.20;;;;;;;0.97;84.52;101484.81;5032286;28;20209;-65
2021/01/09 10:14:41;;;;;;;30.90;15.33;;;;;;;0.99;84.38;101488.28;5038515;28;20698;-63
2021/01/09 10:17:13;;;;;;;21.87;11.10;;;;;;;0.99;84.43;101485.66;5038669;28;20205;-65
2021/01/09 10:19:39;;;;;;;16.43;10.37;;;;;;;1.00;84.34;101490.00;5042317;28;20213;-65
2021/01/09 10:22:05;;;;;;;16.70;10.13;;;;;;;1.00;84.33;101490.00;5039161;28;20213;-66
2021/01/09 10:24:32;;;;;;;15.37;9.97;;;;;;;1.00;84.21;101493.50;5035599;28;20237;-64
2021/01/09 10:27:00;;;;;;;12.53;9.17;;;;;;;1.00;84.36;101493.50;5039265;28;20233;-64
2021/01/09 10:29:26;;;;;;;15.00;9.93;;;;;;;1.02;84.61;101496.13;5049082;28;20583;-66
2021/01/09 10:31:52;;;;;;;16.43;10.07;;;;;;;1.03;84.44;101492.63;5038696;28;20214;-64
2021/01/09 10:34:18;;;;;;;14.60;10.00;;;;;;;1.04;84.65;101491.72;5034787;28;20233;-64
2021/01/09 10:36:44;;;;;;;14.43;10.10;;;;;;;1.05;84.25;101493.47;5036232;28;20698;-66
2021/01/09 10:39:10;;;;;;;32.43;11.53;;;;;;;1.07;84.18;101491.69;5041293;28;20292;-65
2021/01/09 10:41:37;;;;;;;16.00;10.60;;;;;;;1.07;84.74;101491.69;5039641;28;20219;-66
2021/01/09 10:44:04;;;;;;;24.50;11.53;;;;;;;1.07;84.50;101486.47;5041388;28;20198;-65
2021/01/09 10:46:31;;;;;;;22.53;12.23;;;;;;;1.09;84.43;101491.66;5048478;28;20232;-64
2021/01/09 10:48:57;;;;;;;17.00;11.47;;;;;;;1.08;84.41;101496.03;5050325;28;20209;-64
2021/01/09 10:51:26;;;;;;;17.27;10.47;;;;;;;1.08;84.08;101482.91;5050219;28;20580;-65
2021/01/09 10:53:52;;;;;;;85.67;16.30;;;;;;;1.09;84.57;101487.28;5039640;28;20209;-68
2021/01/09 10:56:18;;;;;;;19.23;11.03;;;;;;;1.10;84.52;101481.16;5049135;28;20256;-65
2021/01/09 10:58:45;;;;;;;20.23;11.40;;;;;;;1.11;84.73;101487.25;5051818;28;20201;-65
2021/01/09 11:01:12;;;;;;;19.03;11.27;;;;;;;1.11;84.54;101490.75;5047773;28;20635;-65
2021/01/09 11:03:41;;;;;;;20.10;11.70;;;;;;;1.11;84.42;101488.13;5037354;28;20214;-69
2021/01/09 11:06:07;;;;;;;19.47;11.60;;;;;;;1.12;84.30;101489.00;5050980;28;20230;-67
2021/01/09 11:08:33;;;;;;;19.33;10.80;;;;;;;1.12;84.67;101489.88;5040906;28;20582;-66
2021/01/09 11:10:59;;;;;;;23.10;12.53;;;;;;;1.12;84.49;101489.88;5053528;28;20296;-66
2021/01/09 11:13:25;;;;;;;19.70;11.07;;;;;;;1.13;84.71;101485.50;5053024;28;20202;-67
2021/01/09 11:15:52;;;;;;;113.63;17.93;;;;;;;1.13;84.69;101486.38;5052687;28;20228;-67
2021/01/09 11:18:19;;;;;;;15.67;10.73;;;;;;;1.13;84.52;101489.00;5053675;28;20209;-67
2021/01/09 11:20:46;;;;;;;17.47;11.00;;;;;;;1.13;84.75;101486.38;5051864;28;20205;-66
2021/01/09 11:23:12;;;;;;;23.97;11.33;;;;;;;1.14;85.01;101489.84;5052705;28;20327;-67